x

West Superior - 30nm Ne Of Outer Island, Wi (45006) Wave Buoy

5:50am - Tue 19th Sep 2017 All times are CDT. -5 hours from GMT.

  • Sig Wave height 0.7ft
  • Average Period 3s
  • Wind
    9mph, 11mph gusts
  • Sea Temp 55°f
  • Air Temp 57°f
  • Sea Pressure 1015.7mb
  • West Superior - 30nm Ne Of Outer Island, Wi
  • West Superior - 30nm Ne Of Outer Island, Wi

More Historic Weather Station data

Upgrade to MSW Pro to gain access to the past 30 days of data for over 8000 Wavebouys and Weather Stations around the globe.

Join

Comparision Forecast

View Surf forecast
   
Tue 09/19 5:50am 0.7ft  -  3s 9 11 mph 1015.7mb 55f 57f
4:50am  -   -   -  7 7 mph 1016mb 55f 57f
3:50am 0.7ft  -  3s 9 9 mph 1016.1mb 54f 57f
2:50am 0.7ft  -  3s 9 11 mph 1016mb 54f 57f
1:50am 1ft 3s 3s 11 11 mph 1016.3mb 54f 56f
12:50am 1ft 3s 3s 11 11 mph 1016.7mb 54f 56f
Mon 09/18 10:50pm 1.3ft 4s 3s 9 11 mph 1017.6mb 54f 56f
9:50pm 1.3ft 4s 4s 9 9 mph 1017.3mb 54f 56f
8:50pm 0.7ft  -  3s 9 9 mph 1017.4mb 54f 57f
7:50pm 0.3ft  -  3s 7 9 mph 1017.1mb 55f 56f
6:50pm 0.3ft  -  4s 7 9 mph 1017.1mb 55f 57f
5:50pm 0.3ft  -  4s 7 7 mph 1017.4mb 55f 57f
4:50pm 0.7ft  -  4s 2 2 mph 1017.7mb 55f 56f
3:50pm 0.7ft  -  3s 2 2 mph 1018.2mb 55f 56f
2:50pm 0.7ft  -  3s 2 4 mph 1018.6mb 55f 56f
1:50pm 1ft 3s 3s 4 7 mph 1018.9mb 55f 56f
12:50pm 1ft 3s 3s 9 9 mph 1020mb 55f 56f
11:50am 1ft 3s 3s 9 9 mph 1020.3mb 55f 55f
10:50am 1ft 3s 3s 11 13 mph 1020.6mb 54f 55f
9:50am 0.7ft  -  3s 11 13 mph 1020.6mb 54f 55f
8:50am 0.7ft  -  4s 11 13 mph 1020.4mb 53f 55f
7:50am 0.7ft  -  4s 7 7 mph 1020.2mb 54f 55f
6:50am 0.7ft  -  3s 4 4 mph 1020.7mb 54f 54f
5:50am 0.7ft  -  3s 4 4 mph 1020.4mb 54f 54f
4:50am 1ft 3s 3s 4 7 mph 1020.4mb 54f 54f
3:50am 1ft 4s 3s 2 4 mph 1020.3mb 54f 54f
2:50am  -   -   -  2 4 mph 1019.9mb 55f 54f
1:50am 1.3ft 4s 3s 2 4 mph 1020.5mb 55f 54f
12:50am 1.6ft 4s 4s  -  2 mph 1020.6mb 55f 55f
Sun 09/17 11:50pm 1.6ft 4s 4s 2 4 mph 1020.6mb 55f 55f
10:50pm 2ft 5s 4s 4 7 mph 1020.1mb 55f 55f
9:50pm 2.5ft 5s  -  7 9 mph 1019.5mb 55f 56f
8:50pm 3ft 5s 4s 7 9 mph 1019.1mb 55f 57f
7:50pm 3.5ft 6s 4s 9 11 mph 1018.6mb 55f 57f
6:50pm 4.5ft 6s 5s 16 20 mph 1017.7mb 55f 58f
5:50pm 4.5ft 6s 5s 20 25 mph 1017.3mb 55f 58f
4:50pm 4ft 6s 5s 20 25 mph 1016.8mb 55f 58f
3:50pm 4ft 6s 5s 18 22 mph 1016.4mb 54f 57f
2:50pm 4ft 6s 4s 18 22 mph 1016.6mb 55f 57f
1:50pm 3.5ft 6s 4s 20 25 mph 1016.8mb 55f 56f
12:50pm 4ft 6s 4s 18 22 mph 1016.8mb 55f 56f
11:50am 4.5ft 6s 5s 22 25 mph 1016.3mb 56f 56f
10:50am 5ft 6s 4s 20 25 mph 1016mb 56f 56f
9:50am 4.5ft 6s 4s 25 29 mph 1015.5mb 56f 56f
8:50am 5ft 5s 4s 27 34 mph 1014.5mb 56f 56f
7:50am 5ft 6s 4s 29 34 mph 1013.8mb 57f 57f
6:50am 5ft 5s 4s 29 34 mph 1012.7mb 57f 57f
5:50am 3.5ft 4s 4s 31 38 mph 1011.9mb 58f 58f
4:50am 2ft 3s 3s 27 34 mph 1011mb 58f 60f
3:50am 1.6ft 4s 3s 18 22 mph 1011mb 58f 60f
2:50am 1.6ft 4s 4s 11 13 mph 1010.9mb 58f 60f
1:50am 2ft 5s 4s 4 7 mph 1011.1mb 58f 60f
12:50am 2ft 5s 3s 4 7 mph 1011.3mb 58f 59f
Sat 09/16 11:50pm 2ft 5s 3s 13 16 mph 1011.3mb 57f 59f
10:50pm 1.6ft 5s 4s 16 18 mph 1011.7mb 57f 59f
9:50pm 2ft 5s 4s 11 16 mph 1011.9mb 57f 59f
8:50pm 2ft 5s 4s 9 9 mph 1012mb 58f 60f
7:50pm 2.5ft 5s 4s 9 9 mph 1011.7mb 58f 60f
6:50pm 2.5ft 6s 5s 9 9 mph 1011.8mb 58f 60f
5:50pm 2.5ft 6s 5s 4 4 mph 1012.1mb 59f 62f
4:50pm 2.5ft 6s 5s 4 4 mph 1012mb 59f 62f
3:50pm 2.5ft 6s 5s 4 4 mph 1012.2mb 59f 61f
2:50pm 2.5ft 6s 5s 2 4 mph 1012.1mb 59f 61f
1:50pm 2.5ft 7s 4s 7 7 mph 1011.6mb 58f 60f
12:50pm 2.5ft 7s 5s 7 7 mph 1011.5mb 58f 59f
11:50am 3.5ft 7s 5s 7 9 mph 1011.8mb 58f 59f
10:50am 3ft 7s 4s 9 11 mph 1011.9mb 57f 58f
9:50am 3.5ft 7s 5s 11 13 mph 1011.9mb 57f 58f
8:50am 3.5ft 7s 5s 13 13 mph 1011.8mb 57f 58f
7:50am 4ft 7s 5s 13 16 mph 1011mb 57f 57f
6:50am 4.5ft 7s 5s 16 16 mph 1010.7mb 57f 57f
5:50am 4.5ft 7s 5s 13 18 mph 1010.6mb 57f 57f
4:50am 5ft 8s 5s 16 18 mph 1010.7mb 57f 57f
3:50am 6ft 7s 6s 18 20 mph 1011.1mb 57f 57f
2:50am 6ft 7s 5s 16 20 mph 1011.6mb 57f 57f
1:50am 6ft 7s 6s 18 22 mph 1012.4mb 57f 57f
12:50am 6ft 7s 5s 22 27 mph 1012.6mb 57f 56f
Fri 09/15 11:50pm 6ft 7s 5s 22 27 mph 1013.4mb 57f 56f
10:50pm 7ft 7s 6s 22 27 mph 1014.3mb 58f 56f
9:50pm 6.5ft 7s 5s 22 27 mph 1014.9mb 58f 56f
8:50pm 6ft 7s 5s 27 31 mph 1014.5mb 58f 56f
7:50pm 7ft 7s 5s 29 36 mph 1013.8mb 58f 56f
6:50pm 6.5ft 6s 5s 29 36 mph 1013.6mb 59f 57f
5:50pm 6ft 6s 5s 27 34 mph 1013.7mb 58f 57f
4:50pm 6ft 6s 5s 27 31 mph 1013.4mb 59f 57f
3:50pm 6ft 6s 5s 29 34 mph 1012.9mb 58f 57f
2:50pm 5.5ft 6s 4s 27 31 mph 1013.2mb 58f 57f
1:50pm 5ft 6s 4s 27 31 mph 1013mb 58f 57f
12:50pm 4.5ft 5s  -  31 38 mph 1011.5mb 58f 57f